Time;durP1;ratioP1;P1;durP2;ratioP2;P2;SDS_P1;SDS_P2;PMS_P1;PMS_P2;Temp;Humidity;BMP_temperature;BMP_pressure;BME280_temperature;BME280_humidity;BME280_pressure;Samples;Min_cycle;Max_cycle;Signal;HPM_P1;HPM_P2
2022/10/26 00:01:06;;;;;;;13.82;8.52;;;10.80;99.90;;;;;;5105921;28;20047;-65
2022/10/26 00:03:33;;;;;;;18.05;8.63;;;10.80;99.90;;;;;;5110618;28;20071;-65
2022/10/26 00:06:09;;;;;;;13.23;8.18;;;10.80;99.90;;;;;;5106460;28;20120;-64
2022/10/26 00:08:36;;;;;;;15.20;8.05;;;10.70;99.90;;;;;;5084970;28;20039;-64
2022/10/26 00:11:01;;;;;;;13.23;7.65;;;10.70;99.90;;;;;;5110485;28;20053;-65
2022/10/26 00:13:27;;;;;;;13.50;8.27;;;10.70;99.90;;;;;;5097872;28;20067;-65
2022/10/26 00:15:53;;;;;;;13.05;7.68;;;10.70;99.90;;;;;;5109541;28;20055;-65
2022/10/26 00:18:18;;;;;;;11.65;8.02;;;10.70;99.90;;;;;;5128131;28;20049;-65
2022/10/26 00:20:44;;;;;;;10.68;8.45;;;10.60;99.90;;;;;;5130576;28;20118;-65
2022/10/26 00:23:09;;;;;;;14.32;8.45;;;10.60;99.90;;;;;;5130143;28;20356;-66
2022/10/26 00:25:35;;;;;;;10.45;7.20;;;10.60;99.90;;;;;;5130513;28;20420;-64
2022/10/26 00:28:01;;;;;;;15.48;8.25;;;10.60;99.90;;;;;;5124133;28;20383;-65
2022/10/26 00:30:26;;;;;;;11.30;7.72;;;10.50;99.90;;;;;;5130393;28;20038;-66
2022/10/26 00:32:52;;;;;;;11.40;7.45;;;10.50;99.90;;;;;;5112263;28;20111;-64
2022/10/26 00:35:17;;;;;;;12.85;7.75;;;10.50;99.90;;;;;;5130482;28;20035;-64
2022/10/26 00:37:43;;;;;;;14.52;7.30;;;10.50;99.90;;;;;;5124625;27;20035;-64
2022/10/26 00:40:09;;;;;;;12.73;7.43;;;10.50;99.90;;;;;;5111276;27;20379;-64
2022/10/26 00:42:35;;;;;;;9.93;7.60;;;10.50;99.90;;;;;;5106990;28;20632;-64
2022/10/26 00:45:14;;;;;;;12.98;7.60;;;10.40;99.90;;;;;;5093419;27;20051;-65
2022/10/26 00:47:44;;;;;;;10.20;7.40;;;10.40;99.90;;;;;;5098328;27;20050;-64
2022/10/26 00:50:19;;;;;;;10.63;7.70;;;10.40;99.90;;;;;;5093935;28;20045;-64
2022/10/26 00:52:45;;;;;;;9.77;8.02;;;10.30;99.90;;;;;;5096837;27;20472;-66
2022/10/26 00:55:11;;;;;;;10.88;7.90;;;10.30;99.90;;;;;;5095809;27;20089;-65
2022/10/26 00:57:38;;;;;;;12.85;8.27;;;10.30;99.90;;;;;;5095230;27;20047;-65
2022/10/26 01:00:06;;;;;;;14.23;8.88;;;10.30;99.90;;;;;;5093243;27;20194;-65
2022/10/26 01:02:32;;;;;;;16.42;8.95;;;10.20;99.90;;;;;;5093346;27;20036;-64
2022/10/26 01:04:58;;;;;;;14.32;9.55;;;10.20;99.90;;;;;;5094762;28;20115;-64
2022/10/26 01:07:25;;;;;;;12.50;8.77;;;10.20;99.90;;;;;;5094244;28;20043;-64
2022/10/26 01:09:51;;;;;;;13.73;9.35;;;10.20;99.90;;;;;;5097090;27;20043;-65
2022/10/26 01:12:16;;;;;;;12.25;9.00;;;10.20;99.90;;;;;;5121063;27;20117;-64
2022/10/26 01:14:42;;;;;;;15.65;9.90;;;10.20;99.90;;;;;;5110616;27;20032;-64
2022/10/26 01:17:17;;;;;;;11.88;9.00;;;10.20;99.90;;;;;;5114755;27;20353;-65
2022/10/26 01:20:03;;;;;;;17.00;9.45;;;10.20;99.90;;;;;;5101125;28;20143;-64
2022/10/26 01:22:43;;;;;;;14.05;10.10;;;10.20;99.90;;;;;;5086109;28;20035;-64
2022/10/26 01:25:22;;;;;;;13.43;9.85;;;10.10;99.90;;;;;;5103738;28;20413;-64
2022/10/26 01:27:50;;;;;;;11.82;10.20;;;10.10;99.90;;;;;;5110664;27;20074;-64
2022/10/26 01:30:17;;;;;;;12.85;10.27;;;10.10;99.90;;;;;;5108228;27;20038;-64
2022/10/26 01:32:55;;;;;;;12.18;9.88;;;10.10;99.90;;;;;;5108646;27;20058;-64
2022/10/26 01:35:25;;;;;;;13.18;10.30;;;10.10;99.90;;;;;;5090137;28;20054;-64
2022/10/26 01:38:26;;;;;;;13.15;10.57;;;10.10;99.90;;;;;;5104138;28;20375;-64
2022/10/26 01:41:06;;;;;;;14.75;10.63;;;10.10;99.90;;;;;;5065450;27;20420;-64
2022/10/26 01:43:37;;;;;;;15.10;10.90;;;10.10;99.90;;;;;;5133066;27;20134;-65
2022/10/26 01:46:05;;;;;;;13.00;10.65;;;10.10;99.90;;;;;;5128678;27;20155;-64
2022/10/26 01:48:33;;;;;;;17.23;10.93;;;10.10;99.90;;;;;;5111160;28;20109;-65
2022/10/26 01:51:00;;;;;;;15.15;11.15;;;10.10;99.90;;;;;;5129178;27;20455;-65
2022/10/26 01:53:27;;;;;;;16.13;11.05;;;10.10;99.90;;;;;;5114396;27;20054;-64
2022/10/26 01:55:54;;;;;;;16.10;10.55;;;10.10;99.90;;;;;;5131487;27;20658;-64
2022/10/26 01:58:57;;;;;;;15.27;11.63;;;10.10;99.90;;;;;;5119044;27;20397;-65
2022/10/26 02:01:34;;;;;;;15.07;11.35;;;10.10;99.90;;;;;;5132830;27;20053;-64
2022/10/26 02:04:15;;;;;;;14.25;11.52;;;10.10;99.90;;;;;;5114222;27;20353;-64
2022/10/26 02:07:10;;;;;;;15.55;11.07;;;10.10;99.90;;;;;;5105929;28;20047;-65
2022/10/26 02:10:17;;;;;;;13.43;11.23;;;10.10;99.90;;;;;;5092641;27;20051;-64
2022/10/26 02:12:50;;;;;;;16.13;12.00;;;10.10;99.90;;;;;;5131949;27;20066;-64
2022/10/26 02:15:22;;;;;;;13.65;11.95;;;10.10;99.90;;;;;;5113938;27;20043;-64
2022/10/26 02:17:55;;;;;;;16.23;11.77;;;10.10;99.90;;;;;;5128809;27;20058;-64
2022/10/26 02:20:27;;;;;;;16.48;12.80;;;10.10;99.90;;;;;;5126176;27;20455;-65
2022/10/26 02:22:55;;;;;;;13.55;11.88;;;10.10;99.90;;;;;;5125695;27;20127;-65
2022/10/26 02:25:25;;;;;;;16.20;11.93;;;10.10;99.90;;;;;;5132471;27;20046;-65
2022/10/26 02:28:00;;;;;;;14.20;11.77;;;10.10;99.90;;;;;;5126838;27;20035;-65
2022/10/26 02:30:26;;;;;;;14.05;11.68;;;10.10;99.90;;;;;;5132260;27;20461;-64
2022/10/26 02:32:55;;;;;;;13.90;11.40;;;10.10;99.90;;;;;;5132349;27;20050;-65
2022/10/26 02:35:26;;;;;;;17.30;11.60;;;10.10;99.90;;;;;;5132254;27;20099;-64
2022/10/26 02:37:54;;;;;;;16.10;11.85;;;10.10;99.90;;;;;;5124572;27;20420;-65
2022/10/26 02:40:24;;;;;;;16.40;11.65;;;10.10;99.90;;;;;;5132264;27;20444;-64
2022/10/26 02:42:52;;;;;;;14.98;10.65;;;10.10;99.90;;;;;;5113763;27;20039;-64
2022/10/26 02:45:24;;;;;;;15.25;12.00;;;10.20;99.90;;;;;;5131887;27;20130;-65
2022/10/26 02:47:51;;;;;;;19.00;11.88;;;10.20;99.90;;;;;;5118790;27;20154;-64
2022/10/26 02:50:21;;;;;;;16.52;11.30;;;10.20;99.90;;;;;;5131806;27;20047;-66
2022/10/26 02:53:00;;;;;;;14.15;11.20;;;10.20;99.90;;;;;;5113650;27;20331;-64
2022/10/26 02:55:42;;;;;;;16.63;11.68;;;10.20;99.90;;;;;;5122960;27;20096;-64
2022/10/26 02:58:13;;;;;;;13.20;10.95;;;10.30;99.90;;;;;;5117089;27;20043;-64
2022/10/26 03:00:39;;;;;;;14.40;10.73;;;10.30;99.90;;;;;;5131561;27;20050;-65
2022/10/26 03:03:05;;;;;;;15.55;11.95;;;10.30;99.90;;;;;;5131961;27;20027;-65
2022/10/26 03:05:31;;;;;;;16.98;11.48;;;10.30;99.90;;;;;;5131851;27;20046;-65
2022/10/26 03:07:58;;;;;;;14.18;11.18;;;10.30;99.90;;;;;;5115368;27;20138;-64
2022/10/26 03:10:25;;;;;;;14.15;11.45;;;10.30;99.90;;;;;;5131695;27;20082;-65
2022/10/26 03:12:51;;;;;;;16.33;11.93;;;10.30;99.90;;;;;;5131347;27;20082;-64
2022/10/26 03:15:17;;;;;;;18.20;11.70;;;10.30;99.90;;;;;;5131244;27;20586;-65
2022/10/26 03:17:42;;;;;;;16.60;11.85;;;10.30;99.90;;;;;;5128073;27;20118;-66
2022/10/26 03:20:09;;;;;;;13.13;10.52;;;10.30;99.90;;;;;;5131241;27;20031;-64
2022/10/26 03:22:35;;;;;;;15.88;11.55;;;10.30;99.90;;;;;;5131573;27;20038;-64
2022/10/26 03:25:00;;;;;;;16.98;11.27;;;10.30;99.90;;;;;;5128464;27;20042;-64
2022/10/26 03:27:26;;;;;;;15.50;11.82;;;10.30;99.90;;;;;;5118704;27;20456;-65
2022/10/26 03:29:52;;;;;;;16.35;11.95;;;10.30;99.90;;;;;;5130635;27;20050;-64
2022/10/26 03:32:18;;;;;;;16.55;12.20;;;10.30;99.90;;;;;;5131348;27;20043;-64
2022/10/26 03:34:44;;;;;;;18.02;11.65;;;10.30;99.90;;;;;;5117972;27;20411;-64
2022/10/26 03:37:10;;;;;;;15.52;12.40;;;10.30;99.90;;;;;;5123237;27;20039;-65
2022/10/26 03:39:35;;;;;;;17.88;11.98;;;10.20;99.90;;;;;;5112636;27;20039;-65
2022/10/26 03:42:01;;;;;;;16.13;11.50;;;10.20;99.90;;;;;;5131287;27;20035;-65
2022/10/26 03:44:26;;;;;;;15.45;12.43;;;10.20;99.90;;;;;;5130747;27;20121;-64
2022/10/26 03:46:52;;;;;;;16.15;12.48;;;10.20;99.90;;;;;;5121825;27;20047;-64
2022/10/26 03:49:17;;;;;;;17.83;12.25;;;10.20;99.90;;;;;;5127297;27;20050;-64
2022/10/26 03:51:43;;;;;;;16.48;12.55;;;10.20;99.90;;;;;;5122151;27;20348;-64
2022/10/26 03:54:08;;;;;;;14.40;12.27;;;10.20;99.90;;;;;;5110637;27;20483;-64
2022/10/26 03:56:34;;;;;;;16.92;12.00;;;10.10;99.90;;;;;;5106779;28;20052;-64
2022/10/26 03:58:59;;;;;;;15.50;11.43;;;10.10;99.90;;;;;;5109807;28;20186;-64
2022/10/26 04:01:25;;;;;;;16.55;12.40;;;10.10;99.90;;;;;;5110648;28;20039;-64
2022/10/26 04:03:50;;;;;;;15.88;12.40;;;10.10;99.90;;;;;;5130567;28;20046;-66
2022/10/26 04:06:16;;;;;;;16.75;13.63;;;10.10;99.90;;;;;;5127574;28;20104;-64
2022/10/26 04:08:42;;;;;;;18.60;12.18;;;10.20;99.90;;;;;;5117931;28;20031;-66
2022/10/26 04:11:07;;;;;;;15.35;12.02;;;10.20;99.90;;;;;;5130600;27;20114;-65
2022/10/26 04:13:33;;;;;;;14.07;12.10;;;10.20;99.90;;;;;;5121162;27;20659;-64
2022/10/26 04:15:59;;;;;;;16.13;12.25;;;10.30;99.90;;;;;;5101007;28;20127;-65
2022/10/26 04:18:24;;;;;;;15.60;11.70;;;10.30;99.90;;;;;;5097423;28;20088;-65
2022/10/26 04:20:50;;;;;;;18.45;12.27;;;10.30;99.90;;;;;;5114598;28;20410;-65
2022/10/26 04:23:20;;;;;;;16.23;12.30;;;10.30;99.90;;;;;;5114033;28;20039;-66
2022/10/26 04:25:46;;;;;;;14.00;11.73;;;10.30;99.90;;;;;;5114001;28;20405;-65
2022/10/26 04:28:13;;;;;;;19.83;12.30;;;10.40;99.90;;;;;;5089047;28;20056;-66
2022/10/26 04:30:39;;;;;;;14.70;11.55;;;10.40;99.90;;;;;;5114017;28;20031;-66
2022/10/26 04:33:05;;;;;;;15.52;11.52;;;10.40;99.90;;;;;;5114216;28;20357;-65
2022/10/26 04:35:32;;;;;;;15.45;11.07;;;10.40;99.90;;;;;;5114175;28;20036;-64
2022/10/26 04:38:03;;;;;;;16.73;11.77;;;10.50;99.90;;;;;;5103231;28;20070;-66
2022/10/26 04:40:30;;;;;;;16.10;11.65;;;10.40;99.90;;;;;;5113274;28;20448;-65
2022/10/26 04:42:55;;;;;;;14.48;11.95;;;10.50;99.90;;;;;;5099755;28;20472;-65
2022/10/26 04:45:21;;;;;;;18.60;11.68;;;10.50;99.90;;;;;;5101502;28;20043;-65
2022/10/26 04:47:47;;;;;;;16.80;12.02;;;10.50;99.90;;;;;;5068862;28;20130;-65
2022/10/26 04:50:12;;;;;;;15.90;11.50;;;10.50;99.90;;;;;;5113313;28;20051;-65
2022/10/26 04:52:39;;;;;;;16.17;11.77;;;10.60;99.90;;;;;;5113591;28;20052;-65
2022/10/26 04:55:05;;;;;;;16.73;11.95;;;10.60;99.90;;;;;;5113251;28;20082;-66
2022/10/26 04:57:33;;;;;;;13.20;11.68;;;10.50;99.90;;;;;;5073319;28;20040;-65
2022/10/26 05:00:00;;;;;;;15.65;11.75;;;10.60;99.90;;;;;;5063715;28;20090;-65
2022/10/26 05:02:29;;;;;;;16.50;12.90;;;10.60;99.90;;;;;;5078670;28;20111;-65
2022/10/26 05:04:55;;;;;;;15.60;12.98;;;10.60;99.90;;;;;;5073444;28;20456;-65
2022/10/26 05:07:20;;;;;;;16.23;12.57;;;10.60;99.90;;;;;;5074498;28;20036;-64
2022/10/26 05:09:46;;;;;;;15.48;11.90;;;10.50;99.90;;;;;;5074313;28;20063;-66
2022/10/26 05:12:12;;;;;;;14.57;12.00;;;10.60;99.90;;;;;;5075063;28;20040;-64
2022/10/26 05:14:37;;;;;;;16.10;12.23;;;10.60;99.90;;;;;;5073167;28;20044;-66
2022/10/26 05:17:03;;;;;;;16.08;11.48;;;10.60;99.90;;;;;;5081045;28;20242;-65
2022/10/26 05:19:29;;;;;;;14.23;11.98;;;10.70;99.90;;;;;;5090253;28;20117;-65
2022/10/26 05:21:54;;;;;;;14.50;11.07;;;10.60;99.90;;;;;;5091007;28;20044;-65
2022/10/26 05:24:20;;;;;;;15.02;11.93;;;10.70;99.90;;;;;;5086756;28;20024;-65
2022/10/26 05:26:45;;;;;;;13.38;11.18;;;10.70;99.90;;;;;;5086716;28;20039;-65
2022/10/26 05:29:11;;;;;;;15.88;11.50;;;10.80;99.90;;;;;;5075162;28;20067;-66
2022/10/26 05:31:36;;;;;;;15.95;11.57;;;10.70;99.90;;;;;;5076225;28;20040;-66
2022/10/26 05:34:02;;;;;;;15.63;11.68;;;10.70;99.90;;;;;;5077213;28;20520;-65
2022/10/26 05:36:31;;;;;;;17.23;12.00;;;10.80;99.90;;;;;;5075858;28;20337;-66
2022/10/26 05:38:57;;;;;;;19.10;11.82;;;10.80;99.90;;;;;;5073798;28;20115;-66
2022/10/26 05:41:23;;;;;;;19.05;11.55;;;10.80;99.90;;;;;;5066025;28;20128;-67
2022/10/26 05:43:52;;;;;;;14.57;11.85;;;10.80;99.90;;;;;;5088682;28;20055;-64
2022/10/26 05:46:17;;;;;;;16.23;11.50;;;10.80;99.90;;;;;;5085357;28;20354;-67
2022/10/26 05:48:43;;;;;;;15.43;11.13;;;10.80;99.90;;;;;;5050919;28;20066;-67
2022/10/26 05:51:11;;;;;;;16.23;11.52;;;10.90;99.90;;;;;;5073722;28;20047;-68
2022/10/26 05:53:37;;;;;;;15.93;11.13;;;10.90;99.90;;;;;;5083021;28;20070;-66
2022/10/26 05:56:19;;;;;;;17.00;11.52;;;10.90;99.90;;;;;;5094096;28;20050;-66
2022/10/26 05:58:46;;;;;;;17.88;11.45;;;10.90;99.90;;;;;;5081936;28;20106;-65
2022/10/26 06:01:24;;;;;;;15.98;11.07;;;10.90;99.90;;;;;;5062346;28;20120;-67
2022/10/26 06:04:02;;;;;;;17.23;11.27;;;10.90;99.90;;;;;;5072665;28;20059;-67
2022/10/26 06:06:37;;;;;;;14.75;10.85;;;11.00;99.90;;;;;;5073021;28;20048;-66
2022/10/26 06:09:03;;;;;;;15.98;10.68;;;11.00;99.90;;;;;;5083670;28;20036;-66
2022/10/26 06:11:29;;;;;;;16.50;11.13;;;11.00;99.90;;;;;;5063779;28;20048;-66
2022/10/26 06:13:59;;;;;;;15.63;10.68;;;11.00;99.90;;;;;;5091900;28;20058;-65
2022/10/26 06:16:36;;;;;;;12.05;10.50;;;11.00;99.90;;;;;;5107572;28;21107;-65
2022/10/26 06:19:32;;;;;;;14.07;11.05;;;11.10;99.90;;;;;;5096338;28;20028;-68
2022/10/26 06:22:18;;;;;;;14.13;11.00;;;11.10;99.90;;;;;;5068756;28;20131;-66
2022/10/26 06:25:15;;;;;;;14.70;11.43;;;11.10;99.90;;;;;;5072995;28;20028;-67
2022/10/26 06:27:53;;;;;;;15.45;10.50;;;11.10;99.90;;;;;;5034609;28;20131;-65
2022/10/26 06:30:22;;;;;;;15.32;10.65;;;11.10;99.90;;;;;;5055023;28;20032;-66
2022/10/26 06:32:49;;;;;;;14.07;10.05;;;11.10;99.90;;;;;;5053368;28;20389;-66
2022/10/26 06:35:36;;;;;;;17.70;10.50;;;11.10;99.90;;;;;;5074174;28;20039;-66
2022/10/26 06:38:13;;;;;;;14.75;10.40;;;11.20;99.90;;;;;;5075092;28;20114;-65
2022/10/26 06:40:41;;;;;;;15.23;10.88;;;11.20;99.90;;;;;;5083693;28;20032;-66
2022/10/26 06:43:33;;;;;;;12.65;10.32;;;11.20;99.90;;;;;;5095756;28;20052;-67
2022/10/26 06:46:28;;;;;;;15.38;10.43;;;11.20;99.90;;;;;;5053185;28;20523;-67
2022/10/26 06:49:21;;;;;;;15.88;10.30;;;11.20;99.90;;;;;;5068524;28;20051;-66
2022/10/26 06:51:58;;;;;;;13.38;9.73;;;11.20;99.90;;;;;;5091816;28;20032;-65
2022/10/26 06:54:34;;;;;;;12.70;10.07;;;11.30;99.90;;;;;;5075611;28;20040;-65
2022/10/26 06:57:00;;;;;;;15.45;10.43;;;11.30;99.90;;;;;;5063703;28;20036;-65
2022/10/26 06:59:38;;;;;;;13.45;10.15;;;11.30;99.90;;;;;;5089263;28;21305;-65
2022/10/26 07:02:04;;;;;;;32.60;28.20;;;11.30;99.90;;;;;;5094613;28;20454;-66
2022/10/26 07:04:30;;;;;;;15.68;11.05;;;11.30;99.90;;;;;;5077395;28;20041;-65
2022/10/26 07:06:56;;;;;;;25.02;11.80;;;11.40;99.90;;;;;;5058056;28;20052;-66
2022/10/26 07:09:21;;;;;;;16.90;12.20;;;11.40;99.90;;;;;;5065865;28;20036;-66
2022/10/26 07:11:47;;;;;;;22.17;18.58;;;11.50;99.90;;;;;;5075830;28;20032;-65
2022/10/26 07:14:13;;;;;;;15.15;11.50;;;11.50;99.90;;;;;;5091154;27;20055;-66
2022/10/26 07:16:38;;;;;;;12.88;8.77;;;11.60;99.90;;;;;;5100497;27;20128;-66
2022/10/26 07:19:04;;;;;;;13.85;8.90;;;11.70;99.90;;;;;;5112309;27;20064;-66
2022/10/26 07:21:30;;;;;;;13.00;9.75;;;11.70;99.90;;;;;;5113519;27;20028;-66
2022/10/26 07:23:55;;;;;;;13.73;8.95;;;11.80;99.90;;;;;;5092477;28;20441;-66
2022/10/26 07:26:22;;;;;;;12.25;8.50;;;11.90;99.90;;;;;;5093631;27;20101;-66
2022/10/26 07:28:49;;;;;;;12.77;8.45;;;12.10;99.90;;;;;;5117125;27;20038;-68
2022/10/26 07:31:14;;;;;;;12.35;9.43;;;12.20;99.90;;;;;;5110265;27;20114;-67
2022/10/26 07:33:41;;;;;;;9.85;7.65;;;12.30;99.90;;;;;;5104777;27;20118;-66
2022/10/26 07:36:09;;;;;;;13.20;9.85;;;12.50;99.90;;;;;;5131235;27;20038;-66
2022/10/26 07:38:35;;;;;;;18.05;14.07;;;12.60;99.90;;;;;;5140851;27;20049;-66
2022/10/26 07:41:02;;;;;;;12.45;7.68;;;12.70;99.90;;;;;;5151479;27;20038;-66
2022/10/26 07:43:28;;;;;;;16.20;8.82;;;12.80;99.90;;;;;;5151598;27;20341;-67
2022/10/26 07:45:53;;;;;;;13.82;8.25;;;13.00;99.90;;;;;;5151612;27;20344;-66
2022/10/26 07:48:19;;;;;;;10.88;6.88;;;13.00;99.90;;;;;;5138044;27;20045;-66
2022/10/26 07:50:44;;;;;;;17.27;9.65;;;13.10;99.90;;;;;;5146064;27;20039;-65
2022/10/26 07:53:10;;;;;;;9.30;7.03;;;13.00;99.90;;;;;;5151486;27;20066;-66
2022/10/26 07:55:35;;;;;;;12.90;7.85;;;13.00;99.90;;;;;;5151844;27;20540;-68
2022/10/26 07:58:01;;;;;;;15.90;7.20;;;13.00;99.90;;;;;;5129774;27;20085;-66
2022/10/26 08:00:28;;;;;;;12.45;7.38;;;13.00;99.90;;;;;;5151504;27;20039;-66
2022/10/26 08:02:54;;;;;;;11.05;6.63;;;13.00;99.90;;;;;;5151635;27;20113;-67
2022/10/26 08:05:20;;;;;;;11.80;7.03;;;13.00;99.90;;;;;;5151468;27;20279;-66
2022/10/26 08:07:45;;;;;;;11.65;7.18;;;12.90;99.90;;;;;;5109877;27;20047;-65
2022/10/26 08:10:12;;;;;;;11.23;6.78;;;12.90;99.90;;;;;;5145422;27;20035;-66
2022/10/26 08:12:38;;;;;;;15.25;8.98;;;12.90;99.90;;;;;;5091551;28;20477;-66
2022/10/26 08:15:05;;;;;;;8.82;6.82;;;12.90;99.90;;;;;;5129424;28;20063;-67
2022/10/26 08:17:30;;;;;;;10.10;6.00;;;13.00;99.90;;;;;;5106471;28;20061;-66
2022/10/26 08:19:56;;;;;;;8.73;5.95;;;13.10;99.90;;;;;;5130600;28;20027;-66
2022/10/26 08:22:21;;;;;;;10.82;6.05;;;13.20;99.90;;;;;;5139900;27;20087;-67
2022/10/26 08:24:47;;;;;;;9.60;5.82;;;13.40;99.90;;;;;;5130618;27;20353;-66
2022/10/26 08:27:13;;;;;;;9.43;6.28;;;13.60;99.90;;;;;;5107588;28;20065;-67
2022/10/26 08:29:39;;;;;;;9.45;6.30;;;13.70;99.90;;;;;;5130557;28;20075;-66
2022/10/26 08:32:05;;;;;;;9.90;6.80;;;13.90;99.90;;;;;;5107346;28;20385;-66
2022/10/26 08:34:31;;;;;;;11.73;7.00;;;14.00;99.90;;;;;;5130238;28;20039;-66
2022/10/26 08:36:56;;;;;;;10.88;5.70;;;14.20;99.90;;;;;;5107478;28;20102;-66
2022/10/26 08:39:22;;;;;;;14.95;6.30;;;14.30;99.90;;;;;;5102958;27;20087;-65
2022/10/26 08:41:53;;;;;;;11.57;6.43;;;14.40;99.90;;;;;;5151287;27;20027;-66
2022/10/26 08:44:24;;;;;;;9.85;5.47;;;14.50;99.90;;;;;;5150566;27;20091;-66
2022/10/26 08:47:16;;;;;;;9.88;5.22;;;14.70;99.90;;;;;;5122510;28;20112;-67
2022/10/26 08:49:45;;;;;;;9.68;4.78;;;14.90;99.90;;;;;;5119459;27;20058;-67
2022/10/26 08:52:14;;;;;;;10.30;5.38;;;15.00;99.90;;;;;;5150947;27;20053;-67
2022/10/26 08:54:49;;;;;;;9.43;4.72;;;15.20;99.90;;;;;;5150576;27;20035;-67
2022/10/26 08:57:25;;;;;;;9.13;4.93;;;15.30;99.90;;;;;;5115672;28;20044;-66
2022/10/26 09:00:01;;;;;;;8.82;4.72;;;15.50;99.90;;;;;;5120626;27;20037;-66
2022/10/26 09:02:27;;;;;;;8.70;4.57;;;15.60;99.90;;;;;;5155075;27;20038;-66
2022/10/26 09:04:53;;;;;;;10.98;5.97;;;15.60;99.90;;;;;;5154302;27;20137;-66
2022/10/26 09:07:35;;;;;;;9.77;8.75;;;15.70;99.90;;;;;;5136923;27;20039;-66
2022/10/26 09:10:26;;;;;;;9.20;5.35;;;15.80;99.90;;;;;;5148044;27;20047;-66
2022/10/26 09:13:17;;;;;;;10.23;5.60;;;16.00;99.90;;;;;;5134134;27;20059;-66
2022/10/26 09:16:05;;;;;;;9.48;5.18;;;16.10;99.90;;;;;;5136132;27;20137;-66
2022/10/26 09:19:00;;;;;;;10.15;4.72;;;16.20;99.90;;;;;;5097631;27;20053;-67
2022/10/26 09:21:37;;;;;;;10.60;4.20;;;16.50;99.90;;;;;;5124660;27;20047;-67
2022/10/26 09:24:06;;;;;;;8.38;4.10;;;16.70;99.90;;;;;;5122289;27;20046;-66
2022/10/26 09:26:53;;;;;;;6.05;3.53;;;16.90;99.90;;;;;;5130616;27;20058;-66
2022/10/26 09:29:29;;;;;;;10.82;3.65;;;17.00;99.90;;;;;;5123579;27;20039;-66
2022/10/26 09:31:58;;;;;;;7.97;3.45;;;17.10;99.90;;;;;;5133602;27;20038;-68
2022/10/26 09:34:38;;;;;;;8.88;3.33;;;17.10;99.90;;;;;;5133503;27;20035;-66
2022/10/26 09:37:18;;;;;;;5.75;3.03;;;17.10;99.90;;;;;;5131138;27;20430;-66
2022/10/26 09:40:03;;;;;;;6.30;3.35;;;17.20;99.90;;;;;;5129153;27;20038;-64
2022/10/26 09:42:42;;;;;;;5.10;2.45;;;17.30;99.90;;;;;;5153806;27;20447;-65
2022/10/26 09:45:31;;;;;;;6.70;2.85;;;17.30;99.90;;;;;;5153732;27;20398;-66
2022/10/26 09:48:35;;;;;;;7.15;3.00;;;17.40;99.90;;;;;;5113236;27;20142;-67
2022/10/26 09:51:01;;;;;;;7.22;3.20;;;17.40;99.90;;;;;;5119242;27;20050;-67
2022/10/26 09:53:27;;;;;;;6.53;2.90;;;17.30;99.90;;;;;;5153517;27;20389;-66
2022/10/26 09:56:12;;;;;;;8.65;3.30;;;17.30;99.90;;;;;;5153963;27;20193;-66
2022/10/26 09:58:51;;;;;;;6.65;3.03;;;17.20;99.90;;;;;;5133719;27;20034;-66
2022/10/26 10:01:26;;;;;;;6.35;3.38;;;17.30;99.90;;;;;;5153655;27;20160;-67
2022/10/26 10:04:12;;;;;;;7.43;3.05;;;17.40;99.90;;;;;;5134694;27;20066;-66
2022/10/26 10:06:38;;;;;;;7.07;3.20;;;17.60;99.90;;;;;;5130027;27;20055;-66
2022/10/26 10:09:09;;;;;;;7.82;3.95;;;17.60;99.90;;;;;;5105351;27;20043;-66
2022/10/26 10:11:41;;;;;;;4.57;2.80;;;17.70;99.90;;;;;;5132368;27;20043;-66
2022/10/26 10:14:13;;;;;;;6.38;3.20;;;17.80;99.90;;;;;;5141319;27;20613;-67
2022/10/26 10:16:39;;;;;;;6.43;3.05;;;17.80;99.90;;;;;;5131076;27;20126;-67
2022/10/26 10:19:17;;;;;;;7.05;3.25;;;17.90;99.90;;;;;;5132512;27;20091;-66
2022/10/26 10:21:51;;;;;;;7.57;2.92;;;17.90;99.90;;;;;;5144336;27;20046;-67
2022/10/26 10:24:29;;;;;;;8.00;3.72;;;17.90;99.90;;;;;;5153092;27;20352;-66
2022/10/26 10:27:02;;;;;;;5.72;3.00;;;18.00;99.90;;;;;;5129454;27;20071;-66
2022/10/26 10:29:41;;;;;;;7.47;2.83;;;18.00;99.90;;;;;;5144390;27;20042;-68
2022/10/26 10:32:14;;;;;;;8.52;3.38;;;18.00;99.90;;;;;;5152989;27;20424;-67
2022/10/26 10:34:40;;;;;;;7.95;3.03;;;17.90;99.90;;;;;;5134238;27;20054;-67
2022/10/26 10:37:05;;;;;;;8.65;3.00;;;18.00;99.90;;;;;;5125655;27;20043;-67
2022/10/26 10:39:37;;;;;;;5.35;2.95;;;18.00;99.90;;;;;;5153328;27;20405;-66
2022/10/26 10:42:17;;;;;;;6.47;2.80;;;18.00;99.90;;;;;;5147765;27;20427;-66
2022/10/26 10:44:45;;;;;;;6.32;3.03;;;17.90;99.90;;;;;;5152698;27;20114;-68
2022/10/26 10:47:20;;;;;;;9.05;3.50;;;17.90;99.90;;;;;;5138757;27;20043;-66
2022/10/26 10:49:56;;;;;;;6.95;3.20;;;17.90;99.90;;;;;;5131668;27;20070;-66
2022/10/26 10:52:25;;;;;;;5.47;3.15;;;17.90;99.90;;;;;;5152374;27;20114;-66
2022/10/26 10:54:56;;;;;;;7.40;3.20;;;18.00;99.90;;;;;;5152171;27;20539;-66
2022/10/26 10:57:54;;;;;;;5.47;3.25;;;18.10;99.90;;;;;;5100470;28;20389;-68
2022/10/26 11:00:20;;;;;;;8.25;3.20;;;18.20;99.90;;;;;;5130625;27;20360;-67
2022/10/26 11:03:24;;;;;;;6.50;3.35;;;18.30;99.90;;;;;;5110581;27;20119;-68
2022/10/26 11:06:19;;;;;;;6.88;3.47;;;18.30;99.90;;;;;;5103375;28;20100;-67
2022/10/26 11:09:03;;;;;;;10.07;3.60;;;18.30;99.90;;;;;;5120326;27;20134;-67
2022/10/26 11:11:33;;;;;;;7.82;3.42;;;18.30;99.90;;;;;;5101957;27;20035;-67
2022/10/26 11:14:27;;;;;;;6.70;2.70;;;18.30;99.90;;;;;;5105473;28;20572;-65
2022/10/26 11:17:11;;;;;;;7.53;3.35;;;18.40;99.90;;;;;;5129833;27;20072;-65
2022/10/26 11:19:41;;;;;;;5.82;2.70;;;18.40;99.90;;;;;;5101784;28;20122;-67
2022/10/26 11:22:12;;;;;;;7.60;2.67;;;18.50;99.90;;;;;;5131063;27;20023;-67
2022/10/26 11:24:48;;;;;;;6.00;3.00;;;18.50;99.90;;;;;;5102234;28;20043;-67
2022/10/26 11:27:40;;;;;;;6.82;3.10;;;18.50;99.90;;;;;;5129057;27;20113;-67
2022/10/26 11:30:14;;;;;;;6.65;3.10;;;18.60;99.90;;;;;;5086510;27;20058;-67
2022/10/26 11:32:45;;;;;;;8.45;3.13;;;18.60;99.90;;;;;;5109622;27;20082;-68
2022/10/26 11:35:19;;;;;;;6.97;3.05;;;18.60;99.90;;;;;;5131273;27;20122;-67
2022/10/26 11:37:49;;;;;;;;;;;18.60;99.90;;;;;;5126316;27;20118;-67
2022/10/26 11:40:23;;;;;;;5.82;2.72;;;18.60;99.90;;;;;;5135068;27;20339;-66
2022/10/26 11:42:51;;;;;;;9.93;3.05;;;18.70;99.90;;;;;;5151250;27;20467;-68
2022/10/26 11:45:19;;;;;;;8.45;3.17;;;18.70;99.90;;;;;;5147279;27;20027;-66
2022/10/26 11:47:52;;;;;;;6.45;3.08;;;18.80;99.90;;;;;;5111678;27;20039;-66
2022/10/26 11:50:22;;;;;;;7.65;2.95;;;18.80;99.90;;;;;;5123828;27;20139;-66
2022/10/26 11:53:10;;;;;;;8.43;2.97;;;18.80;99.90;;;;;;5132401;27;20070;-67
2022/10/26 11:55:38;;;;;;;5.53;3.20;;;18.80;99.90;;;;;;5150612;27;20057;-66
2022/10/26 11:58:04;;;;;;;9.48;2.92;;;18.80;99.90;;;;;;5109847;27;20046;-67
2022/10/26 12:00:31;;;;;;;6.85;3.00;;;18.90;99.90;;;;;;5142034;27;20031;-67
2022/10/26 12:03:06;;;;;;;7.45;3.58;;;18.90;99.90;;;;;;5150942;27;20095;-66
2022/10/26 12:05:45;;;;;;;8.40;3.75;;;18.90;99.90;;;;;;5151742;27;20057;-66
2022/10/26 12:08:23;;;;;;;7.70;3.47;;;18.90;99.90;;;;;;5129244;27;20034;-67
2022/10/26 12:10:57;;;;;;;9.70;3.45;;;18.80;99.90;;;;;;5151527;27;20046;-66
2022/10/26 12:13:47;;;;;;;6.15;3.40;;;18.80;99.90;;;;;;5150795;27;20635;-64
2022/10/26 12:16:28;;;;;;;7.95;3.75;;;18.80;99.90;;;;;;5151627;27;20054;-65
2022/10/26 12:18:59;;;;;;;9.05;3.50;;;18.80;99.90;;;;;;5127032;27;20047;-65
2022/10/26 12:21:28;;;;;;;9.07;3.90;;;18.80;99.90;;;;;;5123424;27;20042;-66
2022/10/26 12:23:58;;;;;;;8.43;4.03;;;18.80;99.90;;;;;;5150820;27;20107;-64
2022/10/26 12:26:23;;;;;;;11.25;3.97;;;18.80;99.90;;;;;;5151213;27;20176;-65
2022/10/26 12:29:04;;;;;;;5.95;3.65;;;18.90;99.90;;;;;;5123113;27;20091;-64
2022/10/26 12:31:41;;;;;;;6.85;3.50;;;18.90;99.90;;;;;;5150160;27;20053;-65
2022/10/26 12:34:20;;;;;;;9.55;4.03;;;18.80;99.90;;;;;;5099659;27;20154;-65
2022/10/26 12:36:55;;;;;;;8.40;3.83;;;18.80;99.90;;;;;;5116712;27;20138;-65
2022/10/26 12:39:44;;;;;;;9.77;3.70;;;18.80;99.90;;;;;;5118389;27;20050;-66
2022/10/26 12:42:27;;;;;;;6.85;3.97;;;18.70;99.90;;;;;;5120957;27;20069;-66
2022/10/26 12:44:53;;;;;;;9.15;3.80;;;18.70;99.90;;;;;;5134287;27;20046;-65
2022/10/26 12:47:42;;;;;;;8.48;3.95;;;18.60;99.90;;;;;;5126913;27;20067;-65
2022/10/26 12:50:08;;;;;;;9.20;3.80;;;18.70;99.90;;;;;;5116762;27;20429;-65
2022/10/26 12:52:48;;;;;;;9.82;3.95;;;18.60;99.90;;;;;;5104552;27;20055;-65
2022/10/26 12:55:40;;;;;;;7.68;3.95;;;18.60;99.90;;;;;;5123253;27;20390;-65
2022/10/26 12:58:08;;;;;;;11.50;4.57;;;18.60;99.90;;;;;;5125782;27;20047;-66